sensor_id;sensor_type;location;lat;lon;timestamp;temperature;humidity
6740;DHT22;3407;49.882;10.920;2023-07-16T00:01:40;20.10;91.50
6740;DHT22;3407;49.882;10.920;2023-07-16T00:06:35;20.20;92.10
6740;DHT22;3407;49.882;10.920;2023-07-16T00:11:31;20.20;92.50
6740;DHT22;3407;49.882;10.920;2023-07-16T00:16:27;20.20;92.10
6740;DHT22;3407;49.882;10.920;2023-07-16T00:21:23;20.30;92.80
6740;DHT22;3407;49.882;10.920;2023-07-16T00:26:18;20.40;93.00
6740;DHT22;3407;49.882;10.920;2023-07-16T00:31:14;20.40;93.10
6740;DHT22;3407;49.882;10.920;2023-07-16T00:36:09;20.30;92.10
6740;DHT22;3407;49.882;10.920;2023-07-16T00:41:05;20.10;90.80
6740;DHT22;3407;49.882;10.920;2023-07-16T00:46:00;20.00;91.30
6740;DHT22;3407;49.882;10.920;2023-07-16T00:50:56;20.10;93.30
6740;DHT22;3407;49.882;10.920;2023-07-16T00:55:52;20.30;93.60
6740;DHT22;3407;49.882;10.920;2023-07-16T01:00:48;20.30;93.50
6740;DHT22;3407;49.882;10.920;2023-07-16T01:11:05;20.20;93.30
6740;DHT22;3407;49.882;10.920;2023-07-16T01:16:01;20.10;93.00
6740;DHT22;3407;49.882;10.920;2023-07-16T01:20:57;20.00;92.90
6740;DHT22;3407;49.882;10.920;2023-07-16T01:31:09;19.80;92.30
6740;DHT22;3407;49.882;10.920;2023-07-16T01:36:06;19.70;92.90
6740;DHT22;3407;49.882;10.920;2023-07-16T01:41:03;19.70;92.90
6740;DHT22;3407;49.882;10.920;2023-07-16T01:45:58;19.50;91.30
6740;DHT22;3407;49.882;10.920;2023-07-16T01:50:54;19.50;92.50
6740;DHT22;3407;49.882;10.920;2023-07-16T01:55:49;19.60;93.30
6740;DHT22;3407;49.882;10.920;2023-07-16T02:00:45;19.50;91.90
6740;DHT22;3407;49.882;10.920;2023-07-16T02:05:41;19.40;92.70
6740;DHT22;3407;49.882;10.920;2023-07-16T02:10:36;19.60;93.10
6740;DHT22;3407;49.882;10.920;2023-07-16T02:15:32;19.60;93.10
6740;DHT22;3407;49.882;10.920;2023-07-16T02:20:27;19.50;92.60
6740;DHT22;3407;49.882;10.920;2023-07-16T02:25:23;19.50;93.20
6740;DHT22;3407;49.882;10.920;2023-07-16T02:30:18;19.50;92.80
6740;DHT22;3407;49.882;10.920;2023-07-16T02:35:14;19.50;93.10
6740;DHT22;3407;49.882;10.920;2023-07-16T02:40:10;19.40;92.40
6740;DHT22;3407;49.882;10.920;2023-07-16T02:45:06;19.40;93.00
6740;DHT22;3407;49.882;10.920;2023-07-16T02:50:02;19.40;92.70
6740;DHT22;3407;49.882;10.920;2023-07-16T02:54:57;19.30;92.50
6740;DHT22;3407;49.882;10.920;2023-07-16T02:59:53;19.40;93.00
6740;DHT22;3407;49.882;10.920;2023-07-16T03:04:48;19.30;92.70
6740;DHT22;3407;49.882;10.920;2023-07-16T03:09:44;19.20;91.80
6740;DHT22;3407;49.882;10.920;2023-07-16T03:14:39;19.10;91.60
6740;DHT22;3407;49.882;10.920;2023-07-16T03:19:35;19.10;92.00
6740;DHT22;3407;49.882;10.920;2023-07-16T03:24:30;19.20;92.50
6740;DHT22;3407;49.882;10.920;2023-07-16T03:29:26;19.20;92.10
6740;DHT22;3407;49.882;10.920;2023-07-16T03:34:21;19.20;91.80
6740;DHT22;3407;49.882;10.920;2023-07-16T03:39:17;19.30;92.10
6740;DHT22;3407;49.882;10.920;2023-07-16T03:44:12;19.20;91.10
6740;DHT22;3407;49.882;10.920;2023-07-16T03:49:08;19.10;90.20
6740;DHT22;3407;49.882;10.920;2023-07-16T03:54:04;19.00;88.80
6740;DHT22;3407;49.882;10.920;2023-07-16T03:58:59;18.90;86.30
6740;DHT22;3407;49.882;10.920;2023-07-16T04:03:55;18.90;82.80
6740;DHT22;3407;49.882;10.920;2023-07-16T04:08:50;18.90;83.00
6740;DHT22;3407;49.882;10.920;2023-07-16T04:13:45;18.90;81.20
6740;DHT22;3407;49.882;10.920;2023-07-16T04:18:41;19.00;82.60
6740;DHT22;3407;49.882;10.920;2023-07-16T04:23:36;19.10;81.60
6740;DHT22;3407;49.882;10.920;2023-07-16T04:28:32;19.40;81.30
6740;DHT22;3407;49.882;10.920;2023-07-16T04:33:27;19.60;70.70
6740;DHT22;3407;49.882;10.920;2023-07-16T04:38:23;19.70;51.20
6740;DHT22;3407;49.882;10.920;2023-07-16T04:43:18;19.50;32.00
6740;DHT22;3407;49.882;10.920;2023-07-16T04:48:14;19.50;44.60
6740;DHT22;3407;49.882;10.920;2023-07-16T04:53:10;20.00;50.70
6740;DHT22;3407;49.882;10.920;2023-07-16T04:58:06;20.70;32.70
6740;DHT22;3407;49.882;10.920;2023-07-16T05:03:01;21.10;1.00
6740;DHT22;3407;49.882;10.920;2023-07-16T05:07:57;21.60;1.00
6740;DHT22;3407;49.882;10.920;2023-07-16T05:12:52;21.60;99.90
6740;DHT22;3407;49.882;10.920;2023-07-16T05:17:47;21.00;1.00
6740;DHT22;3407;49.882;10.920;2023-07-16T05:22:43;20.60;1.00
6740;DHT22;3407;49.882;10.920;2023-07-16T05:27:39;20.20;1.00
6740;DHT22;3407;49.882;10.920;2023-07-16T05:32:35;20.10;1.00
6740;DHT22;3407;49.882;10.920;2023-07-16T05:37:30;20.00;1.00
6740;DHT22;3407;49.882;10.920;2023-07-16T05:42:26;19.90;1.00
6740;DHT22;3407;49.882;10.920;2023-07-16T05:47:21;19.90;1.00
6740;DHT22;3407;49.882;10.920;2023-07-16T05:52:18;20.00;1.00
6740;DHT22;3407;49.882;10.920;2023-07-16T05:57:14;20.00;1.00
6740;DHT22;3407;49.882;10.920;2023-07-16T06:02:09;19.90;1.00
6740;DHT22;3407;49.882;10.920;2023-07-16T06:07:05;19.90;1.00
6740;DHT22;3407;49.882;10.920;2023-07-16T06:12:01;20.00;1.00
6740;DHT22;3407;49.882;10.920;2023-07-16T06:16:56;20.40;1.00
6740;DHT22;3407;49.882;10.920;2023-07-16T06:21:52;20.50;1.00
6740;DHT22;3407;49.882;10.920;2023-07-16T06:26:48;21.00;1.00
6740;DHT22;3407;49.882;10.920;2023-07-16T06:31:53;21.80;1.00
6740;DHT22;3407;49.882;10.920;2023-07-16T06:36:49;22.00;1.00
6740;DHT22;3407;49.882;10.920;2023-07-16T06:41:44;21.70;1.00
6740;DHT22;3407;49.882;10.920;2023-07-16T06:46:40;21.60;50.30
6740;DHT22;3407;49.882;10.920;2023-07-16T06:51:36;21.60;99.90
6740;DHT22;3407;49.882;10.920;2023-07-16T06:56:31;21.50;99.90
6740;DHT22;3407;49.882;10.920;2023-07-16T07:01:27;21.80;99.90
6740;DHT22;3407;49.882;10.920;2023-07-16T07:06:23;23.10;1.00
6740;DHT22;3407;49.882;10.920;2023-07-16T07:11:19;23.40;1.00
6740;DHT22;3407;49.882;10.920;2023-07-16T07:16:14;23.00;99.90
6740;DHT22;3407;49.882;10.920;2023-07-16T07:21:10;24.00;99.90
6740;DHT22;3407;49.882;10.920;2023-07-16T07:26:06;26.00;1.00
6740;DHT22;3407;49.882;10.920;2023-07-16T07:31:01;26.20;99.90
6740;DHT22;3407;49.882;10.920;2023-07-16T07:35:57;24.80;99.90
6740;DHT22;3407;49.882;10.920;2023-07-16T07:40:52;23.80;99.90
6740;DHT22;3407;49.882;10.920;2023-07-16T07:45:48;23.50;1.00
6740;DHT22;3407;49.882;10.920;2023-07-16T07:50:46;23.30;99.90
6740;DHT22;3407;49.882;10.920;2023-07-16T07:55:41;24.20;99.90
6740;DHT22;3407;49.882;10.920;2023-07-16T08:00:37;24.50;99.90
6740;DHT22;3407;49.882;10.920;2023-07-16T08:05:33;26.00;99.90
6740;DHT22;3407;49.882;10.920;2023-07-16T08:10:29;25.90;99.90
6740;DHT22;3407;49.882;10.920;2023-07-16T08:15:25;25.20;99.90
6740;DHT22;3407;49.882;10.920;2023-07-16T08:20:20;24.70;99.90
6740;DHT22;3407;49.882;10.920;2023-07-16T08:25:16;24.30;99.90
6740;DHT22;3407;49.882;10.920;2023-07-16T08:30:11;23.70;99.90
6740;DHT22;3407;49.882;10.920;2023-07-16T08:35:07;23.30;99.90
6740;DHT22;3407;49.882;10.920;2023-07-16T08:40:07;23.30;99.90
6740;DHT22;3407;49.882;10.920;2023-07-16T08:45:10;23.40;99.90
6740;DHT22;3407;49.882;10.920;2023-07-16T08:50:06;24.10;99.90
6740;DHT22;3407;49.882;10.920;2023-07-16T08:55:02;25.70;99.90
6740;DHT22;3407;49.882;10.920;2023-07-16T08:59:58;26.70;99.90
6740;DHT22;3407;49.882;10.920;2023-07-16T09:04:54;28.60;99.90
6740;DHT22;3407;49.882;10.920;2023-07-16T09:09:57;29.00;99.90
6740;DHT22;3407;49.882;10.920;2023-07-16T09:14:56;27.90;99.90
6740;DHT22;3407;49.882;10.920;2023-07-16T09:19:51;27.80;99.90
6740;DHT22;3407;49.882;10.920;2023-07-16T09:24:47;28.60;99.90
6740;DHT22;3407;49.882;10.920;2023-07-16T09:29:43;29.40;98.80
6740;DHT22;3407;49.882;10.920;2023-07-16T09:34:38;30.50;95.70
6740;DHT22;3407;49.882;10.920;2023-07-16T09:39:36;30.90;74.70
6740;DHT22;3407;49.882;10.920;2023-07-16T09:44:32;31.50;58.80
6740;DHT22;3407;49.882;10.920;2023-07-16T09:49:28;32.30;53.90
6740;DHT22;3407;49.882;10.920;2023-07-16T09:54:26;32.40;43.50
6740;DHT22;3407;49.882;10.920;2023-07-16T09:59:25;31.90;34.20
6740;DHT22;3407;49.882;10.920;2023-07-16T10:04:22;29.90;37.90
6740;DHT22;3407;49.882;10.920;2023-07-16T10:09:39;29.40;41.50
6740;DHT22;3407;49.882;10.920;2023-07-16T10:14:42;30.90;38.00
6740;DHT22;3407;49.882;10.920;2023-07-16T10:19:58;29.90;32.90
6740;DHT22;3407;49.882;10.920;2023-07-16T10:24:53;29.10;39.00
6740;DHT22;3407;49.882;10.920;2023-07-16T10:29:49;30.80;33.70
6740;DHT22;3407;49.882;10.920;2023-07-16T10:34:45;30.40;30.00
6740;DHT22;3407;49.882;10.920;2023-07-16T10:39:52;32.00;26.60
6740;DHT22;3407;49.882;10.920;2023-07-16T10:44:52;33.90;17.10
6740;DHT22;3407;49.882;10.920;2023-07-16T10:49:49;35.00;9.70
6740;DHT22;3407;49.882;10.920;2023-07-16T10:54:45;35.40;8.20
6740;DHT22;3407;49.882;10.920;2023-07-16T10:59:40;35.40;1.60
6740;DHT22;3407;49.882;10.920;2023-07-16T11:04:36;32.60;5.90
6740;DHT22;3407;49.882;10.920;2023-07-16T11:09:32;32.70;13.80
6740;DHT22;3407;49.882;10.920;2023-07-16T11:14:28;35.60;8.90
6740;DHT22;3407;49.882;10.920;2023-07-16T11:19:23;37.30;1.00
6740;DHT22;3407;49.882;10.920;2023-07-16T11:24:19;38.60;1.00
6740;DHT22;3407;49.882;10.920;2023-07-16T11:29:16;39.30;1.00
6740;DHT22;3407;49.882;10.920;2023-07-16T11:34:14;39.10;1.00
6740;DHT22;3407;49.882;10.920;2023-07-16T11:39:11;39.30;1.00
6740;DHT22;3407;49.882;10.920;2023-07-16T11:44:07;39.20;1.00
6740;DHT22;3407;49.882;10.920;2023-07-16T11:49:03;38.50;1.00
6740;DHT22;3407;49.882;10.920;2023-07-16T11:53:59;38.40;1.00
6740;DHT22;3407;49.882;10.920;2023-07-16T11:58:55;38.80;1.00
6740;DHT22;3407;49.882;10.920;2023-07-16T12:03:50;39.20;1.00
6740;DHT22;3407;49.882;10.920;2023-07-16T12:08:46;38.70;1.00
6740;DHT22;3407;49.882;10.920;2023-07-16T12:13:41;38.90;1.00
6740;DHT22;3407;49.882;10.920;2023-07-16T12:18:36;38.80;1.00
6740;DHT22;3407;49.882;10.920;2023-07-16T12:23:32;36.10;1.00
6740;DHT22;3407;49.882;10.920;2023-07-16T12:28:28;34.00;1.00
6740;DHT22;3407;49.882;10.920;2023-07-16T12:33:23;35.80;1.00
6740;DHT22;3407;49.882;10.920;2023-07-16T12:38:19;37.00;1.00
6740;DHT22;3407;49.882;10.920;2023-07-16T12:43:14;35.40;1.00
6740;DHT22;3407;49.882;10.920;2023-07-16T12:48:10;35.90;1.00
6740;DHT22;3407;49.882;10.920;2023-07-16T12:53:05;36.50;1.00
6740;DHT22;3407;49.882;10.920;2023-07-16T12:58:01;35.70;1.00
6740;DHT22;3407;49.882;10.920;2023-07-16T13:02:56;36.50;1.00
6740;DHT22;3407;49.882;10.920;2023-07-16T13:07:52;35.70;1.00
6740;DHT22;3407;49.882;10.920;2023-07-16T13:12:47;34.60;1.00
6740;DHT22;3407;49.882;10.920;2023-07-16T13:17:43;34.70;1.00
6740;DHT22;3407;49.882;10.920;2023-07-16T13:22:38;35.90;1.00
6740;DHT22;3407;49.882;10.920;2023-07-16T13:27:34;35.60;1.00
6740;DHT22;3407;49.882;10.920;2023-07-16T13:32:30;33.90;1.00
6740;DHT22;3407;49.882;10.920;2023-07-16T13:37:25;31.90;1.00
6740;DHT22;3407;49.882;10.920;2023-07-16T13:42:21;30.80;1.00
6740;DHT22;3407;49.882;10.920;2023-07-16T13:47:16;30.50;1.00
6740;DHT22;3407;49.882;10.920;2023-07-16T13:52:12;29.90;1.00
6740;DHT22;3407;49.882;10.920;2023-07-16T13:57:08;29.90;1.00
6740;DHT22;3407;49.882;10.920;2023-07-16T14:02:04;29.50;1.00
6740;DHT22;3407;49.882;10.920;2023-07-16T14:07:00;28.80;1.00
6740;DHT22;3407;49.882;10.920;2023-07-16T14:11:55;28.40;1.00
6740;DHT22;3407;49.882;10.920;2023-07-16T14:16:51;28.70;1.00
6740;DHT22;3407;49.882;10.920;2023-07-16T14:21:47;28.70;1.00
6740;DHT22;3407;49.882;10.920;2023-07-16T14:26:42;28.50;1.00
6740;DHT22;3407;49.882;10.920;2023-07-16T14:31:38;28.30;1.00
6740;DHT22;3407;49.882;10.920;2023-07-16T14:36:33;28.10;1.00
6740;DHT22;3407;49.882;10.920;2023-07-16T14:41:29;27.70;1.00
6740;DHT22;3407;49.882;10.920;2023-07-16T14:46:24;27.80;1.00
6740;DHT22;3407;49.882;10.920;2023-07-16T14:51:20;27.60;1.00
6740;DHT22;3407;49.882;10.920;2023-07-16T14:56:16;27.60;1.00
6740;DHT22;3407;49.882;10.920;2023-07-16T15:01:11;27.20;1.00
6740;DHT22;3407;49.882;10.920;2023-07-16T15:06:07;27.00;1.00
6740;DHT22;3407;49.882;10.920;2023-07-16T15:11:03;27.00;1.00
6740;DHT22;3407;49.882;10.920;2023-07-16T15:15:59;27.00;1.00
6740;DHT22;3407;49.882;10.920;2023-07-16T15:21:01;26.90;1.00
6740;DHT22;3407;49.882;10.920;2023-07-16T15:26:02;27.00;1.00
6740;DHT22;3407;49.882;10.920;2023-07-16T15:30:58;27.10;1.00
6740;DHT22;3407;49.882;10.920;2023-07-16T15:35:53;27.10;1.00
6740;DHT22;3407;49.882;10.920;2023-07-16T15:40:49;27.00;1.00
6740;DHT22;3407;49.882;10.920;2023-07-16T15:45:44;26.90;1.00
6740;DHT22;3407;49.882;10.920;2023-07-16T15:50:40;26.80;1.00
6740;DHT22;3407;49.882;10.920;2023-07-16T15:55:36;26.60;1.00
6740;DHT22;3407;49.882;10.920;2023-07-16T16:00:32;26.60;1.00
6740;DHT22;3407;49.882;10.920;2023-07-16T16:05:29;26.70;1.40
6740;DHT22;3407;49.882;10.920;2023-07-16T16:10:24;26.80;1.00
6740;DHT22;3407;49.882;10.920;2023-07-16T16:15:20;26.80;1.00
6740;DHT22;3407;49.882;10.920;2023-07-16T16:20:15;26.60;1.00
6740;DHT22;3407;49.882;10.920;2023-07-16T16:25:11;26.40;1.00
6740;DHT22;3407;49.882;10.920;2023-07-16T16:30:07;26.30;1.00
6740;DHT22;3407;49.882;10.920;2023-07-16T16:35:03;26.10;1.00
6740;DHT22;3407;49.882;10.920;2023-07-16T16:39:59;26.00;1.00
6740;DHT22;3407;49.882;10.920;2023-07-16T16:44:55;25.90;2.30
6740;DHT22;3407;49.882;10.920;2023-07-16T16:49:51;25.80;1.60
6740;DHT22;3407;49.882;10.920;2023-07-16T16:54:46;25.60;3.10
6740;DHT22;3407;49.882;10.920;2023-07-16T16:59:42;25.50;3.90
6740;DHT22;3407;49.882;10.920;2023-07-16T17:04:38;25.40;5.80
6740;DHT22;3407;49.882;10.920;2023-07-16T17:09:38;25.40;5.60
6740;DHT22;3407;49.882;10.920;2023-07-16T17:14:33;25.30;5.40
6740;DHT22;3407;49.882;10.920;2023-07-16T17:19:29;25.30;5.90
6740;DHT22;3407;49.882;10.920;2023-07-16T17:24:24;25.20;6.70
6740;DHT22;3407;49.882;10.920;2023-07-16T17:29:20;25.20;7.80
6740;DHT22;3407;49.882;10.920;2023-07-16T17:34:15;25.10;6.60
6740;DHT22;3407;49.882;10.920;2023-07-16T17:39:11;25.00;6.30
6740;DHT22;3407;49.882;10.920;2023-07-16T17:44:06;24.90;6.70
6740;DHT22;3407;49.882;10.920;2023-07-16T17:49:02;24.80;5.80
6740;DHT22;3407;49.882;10.920;2023-07-16T17:53:59;24.70;7.20
6740;DHT22;3407;49.882;10.920;2023-07-16T17:58:55;24.50;10.00
6740;DHT22;3407;49.882;10.920;2023-07-16T18:03:50;24.50;10.90
6740;DHT22;3407;49.882;10.920;2023-07-16T18:08:46;24.30;11.40
6740;DHT22;3407;49.882;10.920;2023-07-16T18:13:41;24.30;10.90
6740;DHT22;3407;49.882;10.920;2023-07-16T18:18:37;24.10;14.20
6740;DHT22;3407;49.882;10.920;2023-07-16T18:23:33;24.00;14.10
6740;DHT22;3407;49.882;10.920;2023-07-16T18:28:28;23.90;13.80
6740;DHT22;3407;49.882;10.920;2023-07-16T18:33:24;23.80;16.20
6740;DHT22;3407;49.882;10.920;2023-07-16T18:38:19;23.70;16.00
6740;DHT22;3407;49.882;10.920;2023-07-16T18:43:15;23.60;17.10
6740;DHT22;3407;49.882;10.920;2023-07-16T18:48:11;23.50;17.10
6740;DHT22;3407;49.882;10.920;2023-07-16T18:53:08;23.40;18.40
6740;DHT22;3407;49.882;10.920;2023-07-16T18:58:03;23.30;20.20
6740;DHT22;3407;49.882;10.920;2023-07-16T19:02:59;23.20;22.50
6740;DHT22;3407;49.882;10.920;2023-07-16T19:07:54;23.00;22.60
6740;DHT22;3407;49.882;10.920;2023-07-16T19:12:50;22.90;21.40
6740;DHT22;3407;49.882;10.920;2023-07-16T19:17:46;22.80;23.20
6740;DHT22;3407;49.882;10.920;2023-07-16T19:22:41;22.70;23.40
6740;DHT22;3407;49.882;10.920;2023-07-16T19:27:37;22.50;24.50
6740;DHT22;3407;49.882;10.920;2023-07-16T19:32:32;22.40;26.40
6740;DHT22;3407;49.882;10.920;2023-07-16T19:37:28;22.30;28.30
6740;DHT22;3407;49.882;10.920;2023-07-16T19:42:26;22.10;38.40
6740;DHT22;3407;49.882;10.920;2023-07-16T19:47:23;21.90;55.30
6740;DHT22;3407;49.882;10.920;2023-07-16T19:52:18;21.80;79.90
6740;DHT22;3407;49.882;10.920;2023-07-16T19:57:14;21.70;99.90
6740;DHT22;3407;49.882;10.920;2023-07-16T20:02:09;21.50;99.90
6740;DHT22;3407;49.882;10.920;2023-07-16T20:07:05;21.30;99.90
6740;DHT22;3407;49.882;10.920;2023-07-16T20:12:01;21.20;99.90
6740;DHT22;3407;49.882;10.920;2023-07-16T20:16:57;21.00;99.90
6740;DHT22;3407;49.882;10.920;2023-07-16T20:21:53;21.00;99.90
6740;DHT22;3407;49.882;10.920;2023-07-16T20:26:49;20.90;99.90
6740;DHT22;3407;49.882;10.920;2023-07-16T20:31:45;20.60;99.90
6740;DHT22;3407;49.882;10.920;2023-07-16T20:36:40;20.40;99.90
6740;DHT22;3407;49.882;10.920;2023-07-16T20:41:38;20.20;99.90
6740;DHT22;3407;49.882;10.920;2023-07-16T20:46:33;20.00;99.90
6740;DHT22;3407;49.882;10.920;2023-07-16T20:51:29;19.90;99.90
6740;DHT22;3407;49.882;10.920;2023-07-16T20:56:24;19.70;99.90
6740;DHT22;3407;49.882;10.920;2023-07-16T21:01:20;19.50;99.90
6740;DHT22;3407;49.882;10.920;2023-07-16T21:06:15;19.30;99.90
6740;DHT22;3407;49.882;10.920;2023-07-16T21:11:11;19.20;99.90
6740;DHT22;3407;49.882;10.920;2023-07-16T21:16:06;19.10;1.00
6740;DHT22;3407;49.882;10.920;2023-07-16T21:21:02;19.00;1.00
6740;DHT22;3407;49.882;10.920;2023-07-16T21:25:58;18.90;1.00
6740;DHT22;3407;49.882;10.920;2023-07-16T21:30:53;18.90;1.00
6740;DHT22;3407;49.882;10.920;2023-07-16T21:35:49;18.90;1.00
6740;DHT22;3407;49.882;10.920;2023-07-16T21:40:44;18.80;1.00
6740;DHT22;3407;49.882;10.920;2023-07-16T21:45:40;18.70;1.00
6740;DHT22;3407;49.882;10.920;2023-07-16T21:50:35;18.70;1.00
6740;DHT22;3407;49.882;10.920;2023-07-16T21:55:31;18.60;99.90
6740;DHT22;3407;49.882;10.920;2023-07-16T22:00:26;18.60;99.90
6740;DHT22;3407;49.882;10.920;2023-07-16T22:05:22;18.60;1.00
6740;DHT22;3407;49.882;10.920;2023-07-16T22:10:18;18.70;99.90
6740;DHT22;3407;49.882;10.920;2023-07-16T22:15:14;18.60;99.90
6740;DHT22;3407;49.882;10.920;2023-07-16T22:20:10;18.50;1.00
6740;DHT22;3407;49.882;10.920;2023-07-16T22:25:07;18.30;99.90
6740;DHT22;3407;49.882;10.920;2023-07-16T22:30:03;18.20;1.00
6740;DHT22;3407;49.882;10.920;2023-07-16T22:34:59;18.10;1.00
6740;DHT22;3407;49.882;10.920;2023-07-16T22:39:55;18.00;99.90
6740;DHT22;3407;49.882;10.920;2023-07-16T22:44:51;18.00;1.00
6740;DHT22;3407;49.882;10.920;2023-07-16T22:49:46;18.00;1.00
6740;DHT22;3407;49.882;10.920;2023-07-16T22:54:42;17.90;1.00
6740;DHT22;3407;49.882;10.920;2023-07-16T22:59:37;17.70;1.00
6740;DHT22;3407;49.882;10.920;2023-07-16T23:04:33;17.60;1.00
6740;DHT22;3407;49.882;10.920;2023-07-16T23:09:28;17.50;1.00
6740;DHT22;3407;49.882;10.920;2023-07-16T23:14:24;17.40;99.90
6740;DHT22;3407;49.882;10.920;2023-07-16T23:19:19;17.30;99.90
6740;DHT22;3407;49.882;10.920;2023-07-16T23:24:15;17.30;1.00
6740;DHT22;3407;49.882;10.920;2023-07-16T23:29:10;17.20;1.00
6740;DHT22;3407;49.882;10.920;2023-07-16T23:34:06;17.30;1.00
6740;DHT22;3407;49.882;10.920;2023-07-16T23:39:02;17.40;1.00
6740;DHT22;3407;49.882;10.920;2023-07-16T23:43:59;17.40;55.20
6740;DHT22;3407;49.882;10.920;2023-07-16T23:48:55;17.20;1.00
6740;DHT22;3407;49.882;10.920;2023-07-16T23:53:50;17.30;99.90
6740;DHT22;3407;49.882;10.920;2023-07-16T23:58:47;17.40;99.90
